sensor_id;sensor_type;location;lat;lon;timestamp;P1;durP1;ratioP1;P2;durP2;ratioP2
28587;SDS011;15787;49.662;10.162;2022-09-04T00:00:09;0.10;;;0.10;;
28587;SDS011;15787;49.662;10.162;2022-09-04T00:02:44;0.00;;;0.00;;
28587;SDS011;15787;49.662;10.162;2022-09-04T00:05:22;0.00;;;0.00;;
28587;SDS011;15787;49.662;10.162;2022-09-04T00:07:58;0.08;;;0.08;;
28587;SDS011;15787;49.662;10.162;2022-09-04T00:10:44;0.00;;;0.00;;
28587;SDS011;15787;49.662;10.162;2022-09-04T00:13:19;2.72;;;1.10;;
28587;SDS011;15787;49.662;10.162;2022-09-04T00:15:54;0.00;;;0.00;;
28587;SDS011;15787;49.662;10.162;2022-09-04T00:18:28;0.20;;;0.20;;
28587;SDS011;15787;49.662;10.162;2022-09-04T00:21:02;0.00;;;0.00;;
28587;SDS011;15787;49.662;10.162;2022-09-04T00:23:38;0.00;;;0.00;;
28587;SDS011;15787;49.662;10.162;2022-09-04T00:26:13;0.00;;;0.00;;
28587;SDS011;15787;49.662;10.162;2022-09-04T00:28:50;0.00;;;0.00;;
28587;SDS011;15787;49.662;10.162;2022-09-04T00:31:23;0.00;;;0.00;;
28587;SDS011;15787;49.662;10.162;2022-09-04T00:33:58;0.20;;;0.20;;
28587;SDS011;15787;49.662;10.162;2022-09-04T00:36:35;0.00;;;0.00;;
28587;SDS011;15787;49.662;10.162;2022-09-04T00:39:10;0.00;;;0.00;;
28587;SDS011;15787;49.662;10.162;2022-09-04T00:41:44;0.00;;;0.00;;
28587;SDS011;15787;49.662;10.162;2022-09-04T00:50:22;0.00;;;0.00;;
28587;SDS011;15787;49.662;10.162;2022-09-04T00:53:13;0.00;;;0.00;;
28587;SDS011;15787;49.662;10.162;2022-09-04T00:56:03;0.00;;;0.00;;
28587;SDS011;15787;49.662;10.162;2022-09-04T01:01:41;0.00;;;0.00;;
28587;SDS011;15787;49.662;10.162;2022-09-04T01:04:17;0.00;;;0.00;;
28587;SDS011;15787;49.662;10.162;2022-09-04T01:07:02;0.05;;;0.05;;
28587;SDS011;15787;49.662;10.162;2022-09-04T01:12:47;4.40;;;2.83;;
28587;SDS011;15787;49.662;10.162;2022-09-04T01:15:23;0.00;;;0.00;;
28587;SDS011;15787;49.662;10.162;2022-09-04T01:18:01;0.00;;;0.00;;
28587;SDS011;15787;49.662;10.162;2022-09-04T01:20:37;0.00;;;0.00;;
28587;SDS011;15787;49.662;10.162;2022-09-04T01:26:30;0.00;;;0.00;;
28587;SDS011;15787;49.662;10.162;2022-09-04T01:29:09;0.00;;;0.00;;
28587;SDS011;15787;49.662;10.162;2022-09-04T01:31:49;0.00;;;0.00;;
28587;SDS011;15787;49.662;10.162;2022-09-04T01:34:25;0.00;;;0.00;;
28587;SDS011;15787;49.662;10.162;2022-09-04T01:37:03;0.32;;;0.32;;
28587;SDS011;15787;49.662;10.162;2022-09-04T01:39:38;0.00;;;0.00;;
28587;SDS011;15787;49.662;10.162;2022-09-04T01:42:13;0.00;;;0.00;;
28587;SDS011;15787;49.662;10.162;2022-09-04T01:44:47;0.00;;;0.00;;
28587;SDS011;15787;49.662;10.162;2022-09-04T01:47:15;0.00;;;0.00;;
28587;SDS011;15787;49.662;10.162;2022-09-04T01:49:52;0.00;;;0.00;;
28587;SDS011;15787;49.662;10.162;2022-09-04T01:52:31;0.00;;;0.00;;
28587;SDS011;15787;49.662;10.162;2022-09-04T01:55:07;0.00;;;0.00;;
28587;SDS011;15787;49.662;10.162;2022-09-04T01:57:45;0.00;;;0.00;;
28587;SDS011;15787;49.662;10.162;2022-09-04T02:00:22;0.00;;;0.00;;
28587;SDS011;15787;49.662;10.162;2022-09-04T02:02:54;0.00;;;0.00;;
28587;SDS011;15787;49.662;10.162;2022-09-04T02:05:28;0.00;;;0.00;;
28587;SDS011;15787;49.662;10.162;2022-09-04T02:08:14;0.00;;;0.00;;
28587;SDS011;15787;49.662;10.162;2022-09-04T02:10:53;0.00;;;0.00;;
28587;SDS011;15787;49.662;10.162;2022-09-04T02:13:30;0.00;;;0.00;;
28587;SDS011;15787;49.662;10.162;2022-09-04T02:16:11;0.00;;;0.00;;
28587;SDS011;15787;49.662;10.162;2022-09-04T02:18:48;0.10;;;0.10;;
28587;SDS011;15787;49.662;10.162;2022-09-04T02:21:27;10.23;;;2.17;;
28587;SDS011;15787;49.662;10.162;2022-09-04T02:24:03;0.00;;;0.00;;
28587;SDS011;15787;49.662;10.162;2022-09-04T02:26:39;0.70;;;0.70;;
28587;SDS011;15787;49.662;10.162;2022-09-04T02:29:18;0.10;;;0.10;;
28587;SDS011;15787;49.662;10.162;2022-09-04T02:31:53;0.00;;;0.00;;
28587;SDS011;15787;49.662;10.162;2022-09-04T02:34:31;0.00;;;0.00;;
28587;SDS011;15787;49.662;10.162;2022-09-04T02:37:07;0.00;;;0.00;;
28587;SDS011;15787;49.662;10.162;2022-09-04T02:39:42;0.00;;;0.00;;
28587;SDS011;15787;49.662;10.162;2022-09-04T02:42:19;0.20;;;0.20;;
28587;SDS011;15787;49.662;10.162;2022-09-04T02:44:59;0.00;;;0.00;;
28587;SDS011;15787;49.662;10.162;2022-09-04T02:47:37;0.00;;;0.00;;
28587;SDS011;15787;49.662;10.162;2022-09-04T02:50:16;0.93;;;0.93;;
28587;SDS011;15787;49.662;10.162;2022-09-04T02:53:00;0.00;;;0.00;;
28587;SDS011;15787;49.662;10.162;2022-09-04T02:55:42;0.00;;;0.00;;
28587;SDS011;15787;49.662;10.162;2022-09-04T02:58:21;0.00;;;0.00;;
28587;SDS011;15787;49.662;10.162;2022-09-04T03:01:01;0.08;;;0.08;;
28587;SDS011;15787;49.662;10.162;2022-09-04T03:03:38;0.00;;;0.00;;
28587;SDS011;15787;49.662;10.162;2022-09-04T03:06:11;0.00;;;0.00;;
28587;SDS011;15787;49.662;10.162;2022-09-04T03:08:48;0.00;;;0.00;;
28587;SDS011;15787;49.662;10.162;2022-09-04T03:11:22;0.00;;;0.00;;
28587;SDS011;15787;49.662;10.162;2022-09-04T03:13:55;0.95;;;0.95;;
28587;SDS011;15787;49.662;10.162;2022-09-04T03:16:31;0.00;;;0.00;;
28587;SDS011;15787;49.662;10.162;2022-09-04T03:19:06;0.00;;;0.00;;
28587;SDS011;15787;49.662;10.162;2022-09-04T03:21:44;0.00;;;0.00;;
28587;SDS011;15787;49.662;10.162;2022-09-04T03:24:19;0.00;;;0.00;;
28587;SDS011;15787;49.662;10.162;2022-09-04T03:26:52;0.00;;;0.00;;
28587;SDS011;15787;49.662;10.162;2022-09-04T03:29:25;0.00;;;0.00;;
28587;SDS011;15787;49.662;10.162;2022-09-04T03:32:06;0.00;;;0.00;;
28587;SDS011;15787;49.662;10.162;2022-09-04T03:34:46;0.00;;;0.00;;
28587;SDS011;15787;49.662;10.162;2022-09-04T03:37:25;0.00;;;0.00;;
28587;SDS011;15787;49.662;10.162;2022-09-04T03:40:10;0.00;;;0.00;;
28587;SDS011;15787;49.662;10.162;2022-09-04T03:42:49;0.30;;;0.30;;
28587;SDS011;15787;49.662;10.162;2022-09-04T03:45:28;0.08;;;0.08;;
28587;SDS011;15787;49.662;10.162;2022-09-04T03:48:06;0.00;;;0.00;;
28587;SDS011;15787;49.662;10.162;2022-09-04T03:50:47;0.10;;;0.10;;
28587;SDS011;15787;49.662;10.162;2022-09-04T03:53:20;0.00;;;0.00;;
28587;SDS011;15787;49.662;10.162;2022-09-04T03:59:10;0.00;;;0.00;;
28587;SDS011;15787;49.662;10.162;2022-09-04T04:01:46;0.00;;;0.00;;
28587;SDS011;15787;49.662;10.162;2022-09-04T04:07:17;0.15;;;0.15;;
28587;SDS011;15787;49.662;10.162;2022-09-04T04:09:59;0.00;;;0.00;;
28587;SDS011;15787;49.662;10.162;2022-09-04T04:12:40;0.00;;;0.00;;
28587;SDS011;15787;49.662;10.162;2022-09-04T04:15:31;0.00;;;0.00;;
28587;SDS011;15787;49.662;10.162;2022-09-04T04:18:17;0.00;;;0.00;;
28587;SDS011;15787;49.662;10.162;2022-09-04T04:21:04;0.00;;;0.00;;
28587;SDS011;15787;49.662;10.162;2022-09-04T04:23:50;0.00;;;0.00;;
28587;SDS011;15787;49.662;10.162;2022-09-04T04:26:30;0.00;;;0.00;;
28587;SDS011;15787;49.662;10.162;2022-09-04T04:29:10;0.00;;;0.00;;
28587;SDS011;15787;49.662;10.162;2022-09-04T04:31:49;0.03;;;0.03;;
28587;SDS011;15787;49.662;10.162;2022-09-04T04:34:40;0.00;;;0.00;;
28587;SDS011;15787;49.662;10.162;2022-09-04T04:37:25;0.00;;;0.00;;
28587;SDS011;15787;49.662;10.162;2022-09-04T04:40:05;0.00;;;0.00;;
28587;SDS011;15787;49.662;10.162;2022-09-04T04:42:43;0.00;;;0.00;;
28587;SDS011;15787;49.662;10.162;2022-09-04T04:45:22;1.65;;;0.98;;
28587;SDS011;15787;49.662;10.162;2022-09-04T04:48:19;0.00;;;0.00;;
28587;SDS011;15787;49.662;10.162;2022-09-04T04:51:11;0.00;;;0.00;;
28587;SDS011;15787;49.662;10.162;2022-09-04T04:53:52;0.00;;;0.00;;
28587;SDS011;15787;49.662;10.162;2022-09-04T04:56:25;0.00;;;0.00;;
28587;SDS011;15787;49.662;10.162;2022-09-04T04:59:06;0.10;;;0.10;;
28587;SDS011;15787;49.662;10.162;2022-09-04T05:01:48;0.20;;;0.20;;
28587;SDS011;15787;49.662;10.162;2022-09-04T05:04:27;0.00;;;0.00;;
28587;SDS011;15787;49.662;10.162;2022-09-04T05:07:05;0.00;;;0.00;;
28587;SDS011;15787;49.662;10.162;2022-09-04T05:09:41;0.00;;;0.00;;
28587;SDS011;15787;49.662;10.162;2022-09-04T05:12:15;0.00;;;0.00;;
28587;SDS011;15787;49.662;10.162;2022-09-04T05:14:51;0.00;;;0.00;;
28587;SDS011;15787;49.662;10.162;2022-09-04T05:17:26;0.00;;;0.00;;
28587;SDS011;15787;49.662;10.162;2022-09-04T05:20:14;0.00;;;0.00;;
28587;SDS011;15787;49.662;10.162;2022-09-04T05:22:52;0.00;;;0.00;;
28587;SDS011;15787;49.662;10.162;2022-09-04T05:28:04;0.00;;;0.00;;
28587;SDS011;15787;49.662;10.162;2022-09-04T05:30:45;0.00;;;0.00;;
28587;SDS011;15787;49.662;10.162;2022-09-04T05:33:21;0.00;;;0.00;;
28587;SDS011;15787;49.662;10.162;2022-09-04T05:35:59;0.00;;;0.00;;
28587;SDS011;15787;49.662;10.162;2022-09-04T05:38:34;0.00;;;0.00;;
28587;SDS011;15787;49.662;10.162;2022-09-04T05:41:14;0.00;;;0.00;;
28587;SDS011;15787;49.662;10.162;2022-09-04T05:43:56;0.00;;;0.00;;
28587;SDS011;15787;49.662;10.162;2022-09-04T05:46:38;0.00;;;0.00;;
28587;SDS011;15787;49.662;10.162;2022-09-04T05:49:22;0.00;;;0.00;;
28587;SDS011;15787;49.662;10.162;2022-09-04T05:52:10;0.00;;;0.00;;
28587;SDS011;15787;49.662;10.162;2022-09-04T05:55:00;0.00;;;0.00;;
28587;SDS011;15787;49.662;10.162;2022-09-04T05:57:43;0.00;;;0.00;;
28587;SDS011;15787;49.662;10.162;2022-09-04T06:00:19;0.00;;;0.00;;
28587;SDS011;15787;49.662;10.162;2022-09-04T06:02:57;0.00;;;0.00;;
28587;SDS011;15787;49.662;10.162;2022-09-04T06:05:50;0.00;;;0.00;;
28587;SDS011;15787;49.662;10.162;2022-09-04T06:11:46;0.00;;;0.00;;
28587;SDS011;15787;49.662;10.162;2022-09-04T06:14:44;0.00;;;0.00;;
28587;SDS011;15787;49.662;10.162;2022-09-04T06:17:28;0.00;;;0.00;;
28587;SDS011;15787;49.662;10.162;2022-09-04T06:20:08;0.00;;;0.00;;
28587;SDS011;15787;49.662;10.162;2022-09-04T06:22:50;0.00;;;0.00;;
28587;SDS011;15787;49.662;10.162;2022-09-04T06:28:39;0.00;;;0.00;;
28587;SDS011;15787;49.662;10.162;2022-09-04T06:31:38;0.05;;;0.05;;
28587;SDS011;15787;49.662;10.162;2022-09-04T06:34:19;0.00;;;0.00;;
28587;SDS011;15787;49.662;10.162;2022-09-04T06:37:01;1.35;;;1.05;;
28587;SDS011;15787;49.662;10.162;2022-09-04T06:39:49;0.00;;;0.00;;
28587;SDS011;15787;49.662;10.162;2022-09-04T06:42:41;0.00;;;0.00;;
28587;SDS011;15787;49.662;10.162;2022-09-04T06:45:21;9.15;;;3.75;;
28587;SDS011;15787;49.662;10.162;2022-09-04T06:48:01;7.68;;;4.45;;
28587;SDS011;15787;49.662;10.162;2022-09-04T06:50:38;11.32;;;5.75;;
28587;SDS011;15787;49.662;10.162;2022-09-04T06:53:16;10.27;;;5.75;;
28587;SDS011;15787;49.662;10.162;2022-09-04T06:55:56;8.75;;;5.47;;
28587;SDS011;15787;49.662;10.162;2022-09-04T06:58:42;10.35;;;5.75;;
28587;SDS011;15787;49.662;10.162;2022-09-04T07:01:23;10.52;;;6.40;;
28587;SDS011;15787;49.662;10.162;2022-09-04T07:04:11;10.30;;;6.88;;
28587;SDS011;15787;49.662;10.162;2022-09-04T07:06:48;8.63;;;6.60;;
28587;SDS011;15787;49.662;10.162;2022-09-04T07:09:25;11.65;;;6.35;;
28587;SDS011;15787;49.662;10.162;2022-09-04T07:18:09;9.43;;;6.13;;
28587;SDS011;15787;49.662;10.162;2022-09-04T07:20:49;9.15;;;6.30;;
28587;SDS011;15787;49.662;10.162;2022-09-04T07:23:26;10.68;;;6.70;;
28587;SDS011;15787;49.662;10.162;2022-09-04T07:26:06;8.70;;;5.93;;
28587;SDS011;15787;49.662;10.162;2022-09-04T07:31:53;8.88;;;6.03;;
28587;SDS011;15787;49.662;10.162;2022-09-04T07:34:30;8.25;;;6.18;;
28587;SDS011;15787;49.662;10.162;2022-09-04T07:37:07;10.05;;;5.35;;
28587;SDS011;15787;49.662;10.162;2022-09-04T07:39:51;8.35;;;5.20;;
28587;SDS011;15787;49.662;10.162;2022-09-04T07:42:34;10.48;;;5.32;;
28587;SDS011;15787;49.662;10.162;2022-09-04T07:45:10;8.68;;;6.10;;
28587;SDS011;15787;49.662;10.162;2022-09-04T07:47:51;6.20;;;4.68;;
28587;SDS011;15787;49.662;10.162;2022-09-04T07:50:28;8.73;;;5.65;;
28587;SDS011;15787;49.662;10.162;2022-09-04T07:53:10;8.05;;;5.70;;
28587;SDS011;15787;49.662;10.162;2022-09-04T07:55:51;7.82;;;5.82;;
28587;SDS011;15787;49.662;10.162;2022-09-04T07:58:28;9.27;;;6.43;;
28587;SDS011;15787;49.662;10.162;2022-09-04T08:07:13;11.73;;;6.80;;
28587;SDS011;15787;49.662;10.162;2022-09-04T08:12:53;8.65;;;5.70;;
28587;SDS011;15787;49.662;10.162;2022-09-04T08:15:34;8.90;;;5.53;;
28587;SDS011;15787;49.662;10.162;2022-09-04T08:18:14;8.13;;;5.20;;
28587;SDS011;15787;49.662;10.162;2022-09-04T08:21:07;10.13;;;5.47;;
28587;SDS011;15787;49.662;10.162;2022-09-04T08:23:57;9.50;;;5.75;;
28587;SDS011;15787;49.662;10.162;2022-09-04T08:26:57;9.68;;;6.57;;
28587;SDS011;15787;49.662;10.162;2022-09-04T08:29:41;8.48;;;5.10;;
28587;SDS011;15787;49.662;10.162;2022-09-04T08:32:24;8.10;;;5.10;;
28587;SDS011;15787;49.662;10.162;2022-09-04T08:35:23;7.72;;;5.82;;
28587;SDS011;15787;49.662;10.162;2022-09-04T08:37:59;6.78;;;4.75;;
28587;SDS011;15787;49.662;10.162;2022-09-04T08:43:45;8.15;;;6.07;;
28587;SDS011;15787;49.662;10.162;2022-09-04T08:46:43;8.10;;;5.65;;
28587;SDS011;15787;49.662;10.162;2022-09-04T08:49:40;7.00;;;5.43;;
28587;SDS011;15787;49.662;10.162;2022-09-04T08:52:41;8.05;;;5.68;;
28587;SDS011;15787;49.662;10.162;2022-09-04T08:55:41;9.38;;;4.75;;
28587;SDS011;15787;49.662;10.162;2022-09-04T09:01:29;6.30;;;4.40;;
28587;SDS011;15787;49.662;10.162;2022-09-04T09:10:32;4.10;;;3.35;;
28587;SDS011;15787;49.662;10.162;2022-09-04T09:13:12;7.35;;;3.30;;
28587;SDS011;15787;49.662;10.162;2022-09-04T09:19:09;4.35;;;2.20;;
28587;SDS011;15787;49.662;10.162;2022-09-04T09:21:45;5.07;;;2.13;;
28587;SDS011;15787;49.662;10.162;2022-09-04T09:24:24;4.32;;;1.73;;
28587;SDS011;15787;49.662;10.162;2022-09-04T09:27:20;4.35;;;1.80;;
28587;SDS011;15787;49.662;10.162;2022-09-04T09:30:08;3.28;;;2.45;;
28587;SDS011;15787;49.662;10.162;2022-09-04T09:32:51;4.13;;;2.60;;
28587;SDS011;15787;49.662;10.162;2022-09-04T09:36:01;8.15;;;3.15;;
28587;SDS011;15787;49.662;10.162;2022-09-04T09:39:16;4.28;;;2.65;;
28587;SDS011;15787;49.662;10.162;2022-09-04T09:42:13;4.50;;;2.60;;
28587;SDS011;15787;49.662;10.162;2022-09-04T09:45:02;4.78;;;3.45;;
28587;SDS011;15787;49.662;10.162;2022-09-04T09:47:59;5.85;;;2.67;;
28587;SDS011;15787;49.662;10.162;2022-09-04T09:57:04;6.05;;;2.65;;
28587;SDS011;15787;49.662;10.162;2022-09-04T10:09:03;5.53;;;2.20;;
28587;SDS011;15787;49.662;10.162;2022-09-04T10:12:03;3.10;;;1.90;;
28587;SDS011;15787;49.662;10.162;2022-09-04T10:15:04;9.65;;;1.92;;
28587;SDS011;15787;49.662;10.162;2022-09-04T10:17:52;3.08;;;1.98;;
28587;SDS011;15787;49.662;10.162;2022-09-04T10:23:41;1.83;;;1.50;;
28587;SDS011;15787;49.662;10.162;2022-09-04T10:29:43;3.67;;;1.42;;
28587;SDS011;15787;49.662;10.162;2022-09-04T10:32:34;3.60;;;2.10;;
28587;SDS011;15787;49.662;10.162;2022-09-04T10:35:19;2.35;;;1.30;;
28587;SDS011;15787;49.662;10.162;2022-09-04T10:38:03;2.95;;;1.30;;
28587;SDS011;15787;49.662;10.162;2022-09-04T10:40:45;3.15;;;1.52;;
28587;SDS011;15787;49.662;10.162;2022-09-04T10:43:26;2.47;;;1.20;;
28587;SDS011;15787;49.662;10.162;2022-09-04T10:46:08;3.13;;;1.65;;
28587;SDS011;15787;49.662;10.162;2022-09-04T10:52:04;4.35;;;1.30;;
28587;SDS011;15787;49.662;10.162;2022-09-04T10:55:06;2.08;;;1.13;;
28587;SDS011;15787;49.662;10.162;2022-09-04T10:57:47;2.75;;;1.17;;
28587;SDS011;15787;49.662;10.162;2022-09-04T11:00:28;4.15;;;1.50;;
28587;SDS011;15787;49.662;10.162;2022-09-04T11:03:15;2.17;;;1.13;;
28587;SDS011;15787;49.662;10.162;2022-09-04T11:09:18;2.13;;;1.13;;
28587;SDS011;15787;49.662;10.162;2022-09-04T11:12:10;1.83;;;1.20;;
28587;SDS011;15787;49.662;10.162;2022-09-04T11:15:00;1.98;;;1.10;;
28587;SDS011;15787;49.662;10.162;2022-09-04T11:20:59;2.58;;;1.15;;
28587;SDS011;15787;49.662;10.162;2022-09-04T11:24:08;2.55;;;1.30;;
28587;SDS011;15787;49.662;10.162;2022-09-04T11:30:15;2.42;;;1.10;;
28587;SDS011;15787;49.662;10.162;2022-09-04T11:35:36;1.58;;;0.80;;
28587;SDS011;15787;49.662;10.162;2022-09-04T11:38:15;2.20;;;0.80;;
28587;SDS011;15787;49.662;10.162;2022-09-04T11:47:10;1.10;;;0.70;;
28587;SDS011;15787;49.662;10.162;2022-09-04T11:50:08;0.90;;;0.70;;
28587;SDS011;15787;49.662;10.162;2022-09-04T11:55:47;0.90;;;0.57;;
28587;SDS011;15787;49.662;10.162;2022-09-04T11:58:31;1.23;;;0.60;;
28587;SDS011;15787;49.662;10.162;2022-09-04T12:01:21;2.50;;;0.70;;
28587;SDS011;15787;49.662;10.162;2022-09-04T12:04:06;1.75;;;0.82;;
28587;SDS011;15787;49.662;10.162;2022-09-04T12:06:53;4.22;;;0.80;;
28587;SDS011;15787;49.662;10.162;2022-09-04T12:09:47;2.10;;;0.50;;
28587;SDS011;15787;49.662;10.162;2022-09-04T12:12:34;0.85;;;0.45;;
28587;SDS011;15787;49.662;10.162;2022-09-04T12:15:42;1.42;;;0.60;;
28587;SDS011;15787;49.662;10.162;2022-09-04T12:18:36;0.98;;;0.80;;
28587;SDS011;15787;49.662;10.162;2022-09-04T12:21:28;1.33;;;0.70;;
28587;SDS011;15787;49.662;10.162;2022-09-04T12:27:30;1.42;;;0.50;;
28587;SDS011;15787;49.662;10.162;2022-09-04T12:30:22;0.70;;;0.40;;
28587;SDS011;15787;49.662;10.162;2022-09-04T12:33:11;2.28;;;0.43;;
28587;SDS011;15787;49.662;10.162;2022-09-04T12:36:01;2.13;;;0.45;;
28587;SDS011;15787;49.662;10.162;2022-09-04T12:39:05;2.75;;;0.50;;
28587;SDS011;15787;49.662;10.162;2022-09-04T12:44:35;0.98;;;0.60;;
28587;SDS011;15787;49.662;10.162;2022-09-04T12:47:19;0.93;;;0.50;;
28587;SDS011;15787;49.662;10.162;2022-09-04T12:50:02;1.58;;;0.50;;
28587;SDS011;15787;49.662;10.162;2022-09-04T12:52:47;1.58;;;0.50;;
28587;SDS011;15787;49.662;10.162;2022-09-04T12:55:32;1.10;;;0.50;;
28587;SDS011;15787;49.662;10.162;2022-09-04T12:58:11;0.93;;;0.57;;
28587;SDS011;15787;49.662;10.162;2022-09-04T13:00:52;3.53;;;0.60;;
28587;SDS011;15787;49.662;10.162;2022-09-04T13:03:37;0.50;;;0.30;;
28587;SDS011;15787;49.662;10.162;2022-09-04T13:06:17;1.70;;;0.63;;
28587;SDS011;15787;49.662;10.162;2022-09-04T13:08:57;2.28;;;0.60;;
28587;SDS011;15787;49.662;10.162;2022-09-04T13:11:39;1.08;;;0.50;;
28587;SDS011;15787;49.662;10.162;2022-09-04T13:17:11;0.43;;;0.32;;
28587;SDS011;15787;49.662;10.162;2022-09-04T13:19:51;1.92;;;0.40;;
28587;SDS011;15787;49.662;10.162;2022-09-04T13:22:27;3.47;;;0.50;;
28587;SDS011;15787;49.662;10.162;2022-09-04T13:25:05;1.40;;;0.60;;
28587;SDS011;15787;49.662;10.162;2022-09-04T13:27:45;0.70;;;0.52;;
28587;SDS011;15787;49.662;10.162;2022-09-04T13:30:27;2.72;;;0.50;;
28587;SDS011;15787;49.662;10.162;2022-09-04T13:33:00;2.72;;;0.52;;
28587;SDS011;15787;49.662;10.162;2022-09-04T13:35:42;3.42;;;0.52;;
28587;SDS011;15787;49.662;10.162;2022-09-04T13:38:34;2.53;;;0.63;;
28587;SDS011;15787;49.662;10.162;2022-09-04T13:41:32;1.13;;;0.60;;
28587;SDS011;15787;49.662;10.162;2022-09-04T13:44:20;1.30;;;0.60;;
28587;SDS011;15787;49.662;10.162;2022-09-04T13:47:01;1.30;;;0.60;;
28587;SDS011;15787;49.662;10.162;2022-09-04T13:49:35;1.20;;;0.57;;
28587;SDS011;15787;49.662;10.162;2022-09-04T13:52:08;0.90;;;0.57;;
28587;SDS011;15787;49.662;10.162;2022-09-04T13:54:41;1.17;;;0.60;;
28587;SDS011;15787;49.662;10.162;2022-09-04T13:57:14;1.25;;;0.50;;
28587;SDS011;15787;49.662;10.162;2022-09-04T13:59:46;1.30;;;0.60;;
28587;SDS011;15787;49.662;10.162;2022-09-04T14:04:50;1.67;;;0.70;;
28587;SDS011;15787;49.662;10.162;2022-09-04T14:07:22;4.00;;;0.60;;
28587;SDS011;15787;49.662;10.162;2022-09-04T14:09:55;3.80;;;0.63;;
28587;SDS011;15787;49.662;10.162;2022-09-04T14:12:30;2.25;;;0.77;;
28587;SDS011;15787;49.662;10.162;2022-09-04T14:18:28;1.75;;;0.70;;
28587;SDS011;15787;49.662;10.162;2022-09-04T14:21:16;0.60;;;0.52;;
28587;SDS011;15787;49.662;10.162;2022-09-04T14:23:52;2.88;;;1.00;;
28587;SDS011;15787;49.662;10.162;2022-09-04T14:26:33;1.10;;;0.53;;
28587;SDS011;15787;49.662;10.162;2022-09-04T14:29:11;2.38;;;0.60;;
28587;SDS011;15787;49.662;10.162;2022-09-04T14:31:51;1.00;;;0.70;;
28587;SDS011;15787;49.662;10.162;2022-09-04T14:34:29;2.55;;;0.60;;
28587;SDS011;15787;49.662;10.162;2022-09-04T14:37:09;2.78;;;0.75;;
28587;SDS011;15787;49.662;10.162;2022-09-04T14:40:02;1.77;;;0.60;;
28587;SDS011;15787;49.662;10.162;2022-09-04T14:42:38;0.85;;;0.60;;
28587;SDS011;15787;49.662;10.162;2022-09-04T14:45:17;1.00;;;0.70;;
28587;SDS011;15787;49.662;10.162;2022-09-04T14:47:59;1.60;;;0.70;;
28587;SDS011;15787;49.662;10.162;2022-09-04T14:50:34;2.17;;;0.80;;
28587;SDS011;15787;49.662;10.162;2022-09-04T14:53:17;1.73;;;0.70;;
28587;SDS011;15787;49.662;10.162;2022-09-04T14:56:05;1.48;;;0.63;;
28587;SDS011;15787;49.662;10.162;2022-09-04T14:58:52;3.03;;;0.85;;
28587;SDS011;15787;49.662;10.162;2022-09-04T15:01:25;3.67;;;0.73;;
28587;SDS011;15787;49.662;10.162;2022-09-04T15:03:57;1.40;;;0.60;;
28587;SDS011;15787;49.662;10.162;2022-09-04T15:06:33;1.20;;;0.80;;
28587;SDS011;15787;49.662;10.162;2022-09-04T15:09:32;1.50;;;0.60;;
28587;SDS011;15787;49.662;10.162;2022-09-04T15:12:12;2.40;;;0.63;;
28587;SDS011;15787;49.662;10.162;2022-09-04T15:14:51;4.35;;;1.30;;
28587;SDS011;15787;49.662;10.162;2022-09-04T15:17:25;2.20;;;0.85;;
28587;SDS011;15787;49.662;10.162;2022-09-04T15:19:57;3.22;;;0.85;;
28587;SDS011;15787;49.662;10.162;2022-09-04T15:22:30;4.35;;;0.80;;
28587;SDS011;15787;49.662;10.162;2022-09-04T15:25:04;2.13;;;0.70;;
28587;SDS011;15787;49.662;10.162;2022-09-04T15:27:37;1.77;;;0.60;;
28587;SDS011;15787;49.662;10.162;2022-09-04T15:30:16;2.00;;;0.55;;
28587;SDS011;15787;49.662;10.162;2022-09-04T15:32:47;2.65;;;0.75;;
28587;SDS011;15787;49.662;10.162;2022-09-04T15:37:51;1.02;;;0.40;;
28587;SDS011;15787;49.662;10.162;2022-09-04T15:40:32;1.92;;;0.60;;
28587;SDS011;15787;49.662;10.162;2022-09-04T15:43:08;3.28;;;0.95;;
28587;SDS011;15787;49.662;10.162;2022-09-04T15:45:45;1.38;;;0.47;;
28587;SDS011;15787;49.662;10.162;2022-09-04T15:48:26;2.20;;;0.80;;
28587;SDS011;15787;49.662;10.162;2022-09-04T15:51:12;1.42;;;0.68;;
28587;SDS011;15787;49.662;10.162;2022-09-04T15:53:49;2.92;;;0.57;;
28587;SDS011;15787;49.662;10.162;2022-09-04T15:56:33;3.28;;;0.70;;
28587;SDS011;15787;49.662;10.162;2022-09-04T15:59:08;2.38;;;0.70;;
28587;SDS011;15787;49.662;10.162;2022-09-04T16:01:44;2.35;;;0.77;;
28587;SDS011;15787;49.662;10.162;2022-09-04T16:04:21;0.88;;;0.57;;
28587;SDS011;15787;49.662;10.162;2022-09-04T16:06:57;0.90;;;0.60;;
28587;SDS011;15787;49.662;10.162;2022-09-04T16:09:51;3.13;;;0.70;;
28587;SDS011;15787;49.662;10.162;2022-09-04T16:12:22;4.72;;;1.30;;
28587;SDS011;15787;49.662;10.162;2022-09-04T16:14:56;2.33;;;0.70;;
28587;SDS011;15787;49.662;10.162;2022-09-04T16:17:32;1.75;;;0.60;;
28587;SDS011;15787;49.662;10.162;2022-09-04T16:20:10;3.03;;;0.85;;
28587;SDS011;15787;49.662;10.162;2022-09-04T16:22:47;3.08;;;0.70;;
28587;SDS011;15787;49.662;10.162;2022-09-04T16:25:23;2.28;;;0.50;;
28587;SDS011;15787;49.662;10.162;2022-09-04T16:27:57;0.97;;;0.60;;
28587;SDS011;15787;49.662;10.162;2022-09-04T16:30:31;2.78;;;0.73;;
28587;SDS011;15787;49.662;10.162;2022-09-04T16:33:03;2.28;;;0.70;;
28587;SDS011;15787;49.662;10.162;2022-09-04T16:35:53;2.08;;;0.57;;
28587;SDS011;15787;49.662;10.162;2022-09-04T16:38:26;5.18;;;0.73;;
28587;SDS011;15787;49.662;10.162;2022-09-04T16:41:04;1.98;;;0.65;;
28587;SDS011;15787;49.662;10.162;2022-09-04T16:43:38;5.10;;;0.93;;
28587;SDS011;15787;49.662;10.162;2022-09-04T16:46:08;5.50;;;1.08;;
28587;SDS011;15787;49.662;10.162;2022-09-04T16:48:43;2.47;;;1.02;;
28587;SDS011;15787;49.662;10.162;2022-09-04T16:51:19;3.28;;;0.90;;
28587;SDS011;15787;49.662;10.162;2022-09-04T16:54:07;3.75;;;0.70;;
28587;SDS011;15787;49.662;10.162;2022-09-04T16:56:45;4.10;;;0.80;;
28587;SDS011;15787;49.662;10.162;2022-09-04T16:59:39;1.95;;;0.75;;
28587;SDS011;15787;49.662;10.162;2022-09-04T17:02:16;3.85;;;1.00;;
28587;SDS011;15787;49.662;10.162;2022-09-04T17:04:49;1.52;;;1.05;;
28587;SDS011;15787;49.662;10.162;2022-09-04T17:07:22;3.40;;;0.98;;
28587;SDS011;15787;49.662;10.162;2022-09-04T17:09:58;1.77;;;0.80;;
28587;SDS011;15787;49.662;10.162;2022-09-04T17:12:36;4.45;;;1.00;;
28587;SDS011;15787;49.662;10.162;2022-09-04T17:15:19;2.90;;;0.82;;
28587;SDS011;15787;49.662;10.162;2022-09-04T17:17:54;1.98;;;0.80;;
28587;SDS011;15787;49.662;10.162;2022-09-04T17:20:25;1.92;;;0.80;;
28587;SDS011;15787;49.662;10.162;2022-09-04T17:23:22;1.77;;;1.00;;
28587;SDS011;15787;49.662;10.162;2022-09-04T17:26:16;4.93;;;1.42;;
28587;SDS011;15787;49.662;10.162;2022-09-04T17:29:15;4.03;;;1.10;;
28587;SDS011;15787;49.662;10.162;2022-09-04T17:32:04;2.83;;;1.23;;
28587;SDS011;15787;49.662;10.162;2022-09-04T17:34:58;2.05;;;1.13;;
28587;SDS011;15787;49.662;10.162;2022-09-04T17:40:57;2.17;;;1.08;;
28587;SDS011;15787;49.662;10.162;2022-09-04T17:43:56;1.33;;;0.82;;
28587;SDS011;15787;49.662;10.162;2022-09-04T17:46:35;2.50;;;1.00;;
28587;SDS011;15787;49.662;10.162;2022-09-04T17:49:14;1.77;;;1.10;;
28587;SDS011;15787;49.662;10.162;2022-09-04T17:51:46;4.82;;;1.30;;
28587;SDS011;15787;49.662;10.162;2022-09-04T17:54:23;2.83;;;1.20;;
28587;SDS011;15787;49.662;10.162;2022-09-04T17:56:55;2.17;;;1.60;;
28587;SDS011;15787;49.662;10.162;2022-09-04T17:59:26;2.78;;;1.48;;
28587;SDS011;15787;49.662;10.162;2022-09-04T18:02:02;2.63;;;0.88;;
28587;SDS011;15787;49.662;10.162;2022-09-04T18:07:25;1.73;;;0.88;;
28587;SDS011;15787;49.662;10.162;2022-09-04T18:10:19;1.80;;;0.70;;